Time;durP1;ratioP1;P1;durP2;ratioP2;P2;SDS_P1;SDS_P2;PMS_P1;PMS_P2;Temp;Humidity;BMP_temperature;BMP_pressure;BME280_temperature;BME280_humidity;BME280_pressure;Samples;Min_cycle;Max_cycle;Signal;HPM_P1;HPM_P2
2022/01/05 00:01:32;;;;;;;40.25;14.48;;;;;;;-8.01;94.90;98383.66;4998807;28;20057;-69
2022/01/05 00:03:58;;;;;;;38.97;14.48;;;;;;;-8.09;95.33;98380.50;4999383;28;20064;-69
2022/01/05 00:06:24;;;;;;;41.15;15.77;;;;;;;-8.01;95.01;98383.66;4983221;28;20107;-69
2022/01/05 00:08:50;;;;;;;39.85;16.45;;;;;;;-8.30;95.04;98347.34;4999321;28;20044;-70
2022/01/05 00:11:15;;;;;;;42.28;15.60;;;;;;;-8.15;94.53;98369.41;5032500;28;20045;-69
2022/01/05 00:13:42;;;;;;;46.40;21.02;;;;;;;-8.07;95.29;98394.41;5015391;28;20076;-69
2022/01/05 00:16:09;;;;;;;43.70;17.70;;;;;;;-8.13;95.07;98384.16;5032952;28;20041;-70
2022/01/05 00:18:35;;;;;;;42.03;18.20;;;;;;;-8.13;95.28;98393.81;4998717;28;20049;-72
2022/01/05 00:21:03;;;;;;;37.53;16.17;;;;;;;-8.31;95.06;98364.00;4999051;28;20049;-68
2022/01/05 00:23:29;;;;;;;46.00;19.30;;;;;;;-8.09;95.24;98393.59;4968106;28;20053;-69
2022/01/05 00:25:55;;;;;;;40.15;19.25;;;;;;;-8.33;95.31;98363.22;5016647;28;20052;-70
2022/01/05 00:28:20;;;;;;;47.83;18.67;;;;;;;-8.09;95.33;98390.97;5000650;28;20052;-67
2022/01/05 00:30:46;;;;;;;38.47;16.80;;;;;;;-8.09;95.67;98375.25;5017084;28;20042;-69
2022/01/05 00:33:14;;;;;;;35.65;13.77;;;;;;;-8.08;95.84;98384.84;5016315;28;20064;-70
2022/01/05 00:35:41;;;;;;;44.35;19.38;;;;;;;-8.11;95.72;98382.34;4999430;28;20132;-70
2022/01/05 00:38:07;;;;;;;43.22;18.02;;;;;;;-8.19;95.20;98360.88;5014244;28;20509;-68
2022/01/05 00:40:33;;;;;;;39.80;14.23;;;;;;;-8.22;95.54;98347.03;4982322;28;20099;-69
2022/01/05 00:42:59;;;;;;;36.05;14.20;;;;;;;-8.13;95.19;98368.44;4982635;28;20068;-69
2022/01/05 00:45:25;;;;;;;51.17;19.88;;;;;;;-8.13;95.46;98371.06;5014206;28;20132;-70
2022/01/05 00:47:51;;;;;;;40.33;18.88;;;;;;;-8.22;95.78;98357.53;5014448;28;20132;-68
2022/01/05 00:50:16;;;;;;;43.58;18.35;;;;;;;-8.22;95.76;98347.03;5032350;28;20535;-72
2022/01/05 00:52:42;;;;;;;38.88;16.52;;;;;;;-8.23;96.19;98347.94;4998389;28;20045;-68
2022/01/05 00:55:08;;;;;;;45.33;16.65;;;;;;;-8.03;96.37;98377.63;5014783;28;20049;-69
2022/01/05 00:57:34;;;;;;;41.95;21.10;;;;;;;-8.02;95.53;98376.69;5014437;28;20073;-67
2022/01/05 01:00:00;;;;;;;49.60;20.80;;;;;;;-8.07;96.07;98362.94;5014251;28;20065;-69
2022/01/05 01:02:25;;;;;;;41.65;12.70;;;;;;;-7.98;96.28;98376.56;4982377;28;20103;-70
2022/01/05 01:04:51;;;;;;;47.55;21.67;;;;;;;-7.99;95.57;98359.13;4997862;28;20059;-69
2022/01/05 01:07:17;;;;;;;46.72;19.08;;;;;;;-7.98;95.94;98350.34;5031962;28;20049;-68
2022/01/05 01:09:43;;;;;;;44.78;15.13;;;;;;;-8.09;95.89;98328.06;4997474;28;20084;-68
2022/01/05 01:12:09;;;;;;;46.45;19.38;;;;;;;-8.10;96.04;98326.38;4997579;28;20527;-69
2022/01/05 01:14:35;;;;;;;45.42;16.50;;;;;;;-7.97;96.25;98337.19;5031561;28;20121;-69
2022/01/05 01:17:01;;;;;;;40.08;14.13;;;;;;;-7.88;96.31;98346.38;5014264;28;20056;-69
2022/01/05 01:19:26;;;;;;;39.75;14.82;;;;;;;-7.80;96.45;98354.75;5014834;28;20041;-68
2022/01/05 01:21:52;;;;;;;39.63;14.10;;;;;;;-7.86;96.90;98331.41;5032088;28;20086;-70
2022/01/05 01:24:18;;;;;;;39.92;16.25;;;;;;;-7.96;96.22;98309.19;5031717;28;20087;-69
2022/01/05 01:26:44;;;;;;;38.40;14.13;;;;;;;-7.65;96.39;98338.31;4998042;28;20068;-69
2022/01/05 01:29:10;;;;;;;37.35;14.68;;;;;;;-7.89;96.34;98297.50;5014106;28;20072;-67
2022/01/05 01:31:35;;;;;;;43.90;16.48;;;;;;;-7.57;96.50;98336.19;5031966;28;20053;-68
2022/01/05 01:34:01;;;;;;;36.42;13.85;;;;;;;-7.55;96.52;98330.88;5013708;28;20041;-68
2022/01/05 01:36:27;;;;;;;45.92;17.17;;;;;;;-7.71;96.88;98301.00;4997593;28;20037;-68
2022/01/05 01:38:53;;;;;;;47.92;16.38;;;;;;;-7.50;96.80;98325.41;4997369;28;20498;-68
2022/01/05 01:41:18;;;;;;;38.85;13.43;;;;;;;-7.43;96.69;98326.81;5013592;28;20049;-68
2022/01/05 01:43:44;;;;;;;40.38;13.25;;;;;;;-7.57;96.46;98293.34;4965069;28;20124;-67
2022/01/05 01:46:10;;;;;;;40.10;13.63;;;;;;;-7.43;96.67;98300.56;5031543;28;20053;-68
2022/01/05 01:48:36;;;;;;;40.75;15.65;;;;;;;-7.47;96.33;98314.75;5013353;28;20064;-70
2022/01/05 01:51:03;;;;;;;45.03;16.27;;;;;;;-7.69;96.19;98286.91;4997675;28;20042;-68
2022/01/05 01:53:28;;;;;;;33.08;10.98;;;;;;;-7.40;96.36;98321.41;4998548;28;20053;-69
2022/01/05 01:55:57;;;;;;;43.05;13.23;;;;;;;-7.59;96.41;98287.34;5032463;28;20054;-69
2022/01/05 01:58:25;;;;;;;51.50;15.93;;;;;;;-7.36;96.20;98307.22;4981254;28;20093;-68
2022/01/05 02:00:51;;;;;;;40.88;13.77;;;;;;;-7.30;96.93;98288.56;5013293;28;20061;-69
2022/01/05 02:03:17;;;;;;;39.03;12.40;;;;;;;-7.24;96.29;98298.75;5013585;28;20179;-70
2022/01/05 02:05:43;;;;;;;37.83;13.70;;;;;;;-7.21;96.72;98303.84;4997064;28;20053;-70
2022/01/05 02:08:09;;;;;;;45.08;14.60;;;;;;;-7.17;95.93;98301.94;5013007;28;20034;-68
2022/01/05 02:10:34;;;;;;;39.38;14.57;;;;;;;-7.24;96.24;98290.88;5031087;28;20045;-68
2022/01/05 02:13:00;;;;;;;40.08;13.57;;;;;;;-7.37;96.31;98264.38;5030976;28;20080;-69
2022/01/05 02:15:26;;;;;;;45.00;14.80;;;;;;;-7.25;96.14;98286.56;4980433;28;20045;-67
2022/01/05 02:18:10;;;;;;;44.75;15.57;;;;;;;-7.27;96.63;98285.81;5012951;28;20095;-68
2022/01/05 02:20:36;;;;;;;49.53;16.65;;;;;;;-7.31;96.46;98286.88;5012605;28;20132;-69
2022/01/05 02:23:03;;;;;;;30.98;10.13;;;;;;;-7.32;96.83;98277.28;4996511;28;20084;-70
2022/01/05 02:25:29;;;;;;;48.40;16.13;;;;;;;-7.53;97.14;98227.53;4980752;28;20448;-69
2022/01/05 02:27:56;;;;;;;47.08;16.75;;;;;;;-7.31;97.14;98282.47;4996722;28;20129;-67
2022/01/05 02:30:25;;;;;;;43.75;15.43;;;;;;;-7.33;97.20;98276.44;5030647;28;20056;-67
2022/01/05 02:32:51;;;;;;;49.00;16.98;;;;;;;-7.33;97.50;98286.09;5012952;28;20045;-67
2022/01/05 02:35:17;;;;;;;38.05;12.60;;;;;;;-7.33;98.64;98265.09;5012960;28;20394;-67
2022/01/05 02:37:45;;;;;;;43.78;15.30;;;;;;;-7.31;98.51;98268.50;4997662;28;20200;-68
2022/01/05 02:40:16;;;;;;;45.42;14.38;;;;;;;-7.31;98.56;98258.84;4998599;28;20079;-69
2022/01/05 02:42:42;;;;;;;47.25;18.13;;;;;;;-7.36;98.59;98255.56;4997732;28;20103;-68
2022/01/05 02:45:09;;;;;;;55.58;19.25;;;;;;;-7.36;99.03;98266.06;4996721;28;20440;-69
2022/01/05 02:47:36;;;;;;;52.10;19.35;;;;;;;-7.41;98.05;98262.00;5013362;28;20099;-68
2022/01/05 02:50:03;;;;;;;42.28;15.85;;;;;;;-7.31;98.83;98263.25;5015410;28;20072;-68
2022/01/05 02:52:29;;;;;;;53.08;15.05;;;;;;;-7.29;98.76;98256.97;5016442;28;20049;-69
2022/01/05 02:54:55;;;;;;;49.67;17.17;;;;;;;-7.30;98.25;98259.69;5015752;28;20044;-69
2022/01/05 02:57:21;;;;;;;59.72;21.45;;;;;;;-7.36;98.38;98249.47;4998538;28;20060;-69
2022/01/05 02:59:46;;;;;;;59.72;20.50;;;;;;;-7.36;97.91;98254.72;5015232;28;20124;-68
2022/01/05 03:02:12;;;;;;;56.28;18.33;;;;;;;-7.52;98.16;98233.66;5033450;28;20186;-69
2022/01/05 03:04:38;;;;;;;50.67;17.63;;;;;;;-7.71;98.47;98196.97;5030756;28;20409;-69
2022/01/05 03:07:04;;;;;;;65.20;18.25;;;;;;;-7.39;98.15;98241.75;5031169;28;20058;-69
2022/01/05 03:09:30;;;;;;;54.10;16.98;;;;;;;-7.42;98.18;98234.91;5034201;28;20550;-70
2022/01/05 03:11:56;;;;;;;53.53;18.85;;;;;;;-7.37;97.81;98237.28;5016574;28;20045;-69
2022/01/05 03:14:21;;;;;;;39.55;14.98;;;;;;;-7.57;97.55;98198.88;4999888;28;20056;-69
2022/01/05 03:16:47;;;;;;;34.45;13.35;;;;;;;-7.33;97.58;98242.31;5034100;28;20439;-69
2022/01/05 03:19:14;;;;;;;45.45;16.90;;;;;;;-7.63;97.09;98199.19;4999865;28;20343;-69
2022/01/05 03:21:39;;;;;;;47.30;17.45;;;;;;;-7.41;96.81;98235.75;5016051;28;20049;-68
2022/01/05 03:24:05;;;;;;;50.10;19.27;;;;;;;-7.39;97.02;98244.38;5016054;28;20424;-70
2022/01/05 03:26:31;;;;;;;57.65;20.90;;;;;;;-7.52;97.13;98218.75;4967494;28;20184;-69
2022/01/05 03:28:57;;;;;;;51.55;16.52;;;;;;;-7.39;97.12;98233.88;5033769;28;20053;-69
2022/01/05 03:31:23;;;;;;;46.47;17.05;;;;;;;-7.40;96.98;98237.44;5016502;28;20135;-67
2022/01/05 03:33:49;;;;;;;43.75;18.05;;;;;;;-7.46;96.61;98235.94;5015595;28;20356;-70
2022/01/05 03:36:15;;;;;;;55.65;18.92;;;;;;;-7.66;96.79;98205.44;4999269;28;20041;-69
2022/01/05 03:38:41;;;;;;;27.80;8.90;;;;;;;-7.41;96.73;98230.50;5033835;28;20057;-67
2022/01/05 03:41:07;;;;;;;54.03;19.65;;;;;;;-7.48;96.38;98219.44;4983272;28;20038;-67
2022/01/05 03:43:32;;;;;;;45.55;16.08;;;;;;;-7.49;96.48;98222.13;5015834;28;20049;-67
2022/01/05 03:45:58;;;;;;;45.63;14.18;;;;;;;-7.67;96.65;98188.00;4999485;28;20468;-67
2022/01/05 03:48:24;;;;;;;50.90;19.75;;;;;;;-7.49;96.84;98203.75;4999270;28;20056;-69
2022/01/05 03:50:50;;;;;;;44.22;16.55;;;;;;;-7.52;96.50;98204.78;4983006;28;20045;-66
2022/01/05 03:53:16;;;;;;;57.15;17.15;;;;;;;-7.52;96.79;98204.78;5015882;28;20475;-68
2022/01/05 03:55:43;;;;;;;40.20;15.57;;;;;;;-7.65;97.28;98180.06;4999175;28;20101;-67
2022/01/05 03:58:09;;;;;;;54.55;19.95;;;;;;;-7.52;97.56;98202.16;4999197;28;20571;-69
2022/01/05 04:00:39;;;;;;;44.92;14.30;;;;;;;-7.52;96.97;98204.78;5015442;28;20125;-69
2022/01/05 04:03:05;;;;;;;46.15;15.88;;;;;;;-7.52;97.26;98192.50;4999496;28;20079;-72
2022/01/05 04:05:31;;;;;;;41.10;16.08;;;;;;;-7.61;96.73;98181.59;5016095;28;20132;-68
2022/01/05 04:07:57;;;;;;;46.03;16.60;;;;;;;-7.41;96.84;98207.72;5016769;28;20413;-69
2022/01/05 04:10:23;;;;;;;37.53;12.85;;;;;;;-7.35;96.48;98210.06;4983355;28;20214;-68
2022/01/05 04:12:49;;;;;;;44.55;14.68;;;;;;;-7.46;96.74;98191.34;5015437;28;20476;-69
2022/01/05 04:15:16;;;;;;;46.30;17.38;;;;;;;-7.42;96.15;98208.66;5032936;28;20041;-68
2022/01/05 04:17:42;;;;;;;42.33;13.75;;;;;;;-7.48;96.54;98200.22;4999081;28;20045;-69
2022/01/05 04:20:08;;;;;;;28.70;9.45;;;;;;;-7.40;96.97;98198.06;4997514;28;20198;-69
2022/01/05 04:22:34;;;;;;;46.65;16.10;;;;;;;-7.45;97.00;98202.72;4998946;28;20060;-69
2022/01/05 04:25:00;;;;;;;50.38;18.27;;;;;;;-7.50;97.24;98194.19;4999308;28;20049;-68
2022/01/05 04:27:26;;;;;;;50.47;15.63;;;;;;;-7.50;96.74;98189.78;5015157;28;20132;-69
2022/01/05 04:29:52;;;;;;;47.67;17.20;;;;;;;-7.70;97.04;98161.06;5015212;28;20500;-69
2022/01/05 04:32:18;;;;;;;43.08;16.33;;;;;;;-7.46;96.71;98195.75;4999269;28;20060;-68
2022/01/05 04:34:44;;;;;;;37.25;11.25;;;;;;;-7.45;96.99;98192.22;5033218;28;20045;-69
2022/01/05 04:37:09;;;;;;;39.88;14.45;;;;;;;-7.41;96.24;98212.13;5032238;28;20038;-68
2022/01/05 04:39:36;;;;;;;52.30;15.57;;;;;;;-7.44;96.11;98207.03;5033507;28;20077;-68
2022/01/05 04:42:02;;;;;;;36.75;13.85;;;;;;;-7.46;96.39;98182.63;4999253;28;20041;-69
2022/01/05 04:44:28;;;;;;;37.88;14.05;;;;;;;-7.45;96.51;98186.97;5015820;28;20037;-69
2022/01/05 04:46:54;;;;;;;37.92;14.50;;;;;;;-7.60;96.45;98173.66;4998896;28;20128;-69
2022/01/05 04:49:20;;;;;;;39.72;13.95;;;;;;;-7.53;96.51;98180.31;5033031;28;20057;-69
2022/01/05 04:51:46;;;;;;;41.20;13.98;;;;;;;-7.65;96.56;98164.31;5033236;28;20046;-68
2022/01/05 04:54:12;;;;;;;49.25;16.27;;;;;;;-7.50;96.30;98174.03;4999280;28;20075;-69
2022/01/05 04:56:38;;;;;;;34.90;11.02;;;;;;;-7.45;96.17;98174.69;5015514;28;20432;-70
2022/01/05 04:59:04;;;;;;;50.25;21.15;;;;;;;-7.80;96.26;98140.53;5015366;28;20048;-69
2022/01/05 05:01:30;;;;;;;42.17;14.45;;;;;;;-7.56;96.53;98169.97;4999338;28;20048;-71
2022/01/05 05:03:55;;;;;;;30.60;11.88;;;;;;;-7.56;96.64;98164.72;5014960;28;20148;-68
2022/01/05 05:06:22;;;;;;;27.33;9.35;;;;;;;-7.58;96.61;98140.31;4998868;28;20494;-70
2022/01/05 05:08:49;;;;;;;43.97;13.85;;;;;;;-7.50;96.80;98160.06;4998765;28;20501;-69
2022/01/05 05:11:15;;;;;;;42.58;15.27;;;;;;;-7.58;96.46;98150.81;5014620;28;20179;-70
2022/01/05 05:13:41;;;;;;;38.80;13.88;;;;;;;-7.54;96.82;98141.84;4998583;28;20083;-69
2022/01/05 05:16:07;;;;;;;33.65;13.50;;;;;;;-7.66;97.05;98124.13;5032863;28;20053;-69
2022/01/05 05:18:33;;;;;;;47.28;18.52;;;;;;;-7.89;97.09;98087.69;4998401;28;20123;-68
2022/01/05 05:20:59;;;;;;;41.50;15.52;;;;;;;-7.53;97.70;98133.09;4997805;28;20054;-70
2022/01/05 05:23:25;;;;;;;34.90;11.88;;;;;;;-7.41;96.76;98146.50;4982378;28;20386;-70
2022/01/05 05:25:51;;;;;;;35.58;11.05;;;;;;;-7.46;96.81;98148.50;4998368;28;20057;-70
2022/01/05 05:28:16;;;;;;;36.25;12.45;;;;;;;-7.54;96.64;98131.38;5014677;28;20088;-70
2022/01/05 05:30:43;;;;;;;29.08;9.38;;;;;;;-7.44;96.81;98137.00;4997159;28;20080;-71
2022/01/05 05:33:08;;;;;;;39.13;13.10;;;;;;;-7.55;97.21;98116.56;5015608;28;20052;-70
2022/01/05 05:35:34;;;;;;;35.80;11.45;;;;;;;-7.63;96.97;98100.34;4985479;28;20045;-69
2022/01/05 05:38:00;;;;;;;36.40;12.07;;;;;;;-7.58;97.16;98108.84;5018291;28;20482;-70
2022/01/05 05:40:26;;;;;;;43.35;13.15;;;;;;;-7.44;97.06;98109.94;4985606;28;20457;-70
2022/01/05 05:42:52;;;;;;;22.05;8.52;;;;;;;-7.42;96.44;98094.94;5002143;28;20060;-70
2022/01/05 05:45:18;;;;;;;30.67;8.55;;;;;;;-7.42;96.12;98093.19;4997460;28;20416;-70
2022/01/05 05:47:44;;;;;;;36.17;12.27;;;;;;;-7.40;95.92;98101.81;5031459;28;20086;-70
2022/01/05 05:50:11;;;;;;;37.15;11.43;;;;;;;-7.39;96.16;98098.25;4980816;28;20413;-70
2022/01/05 05:52:37;;;;;;;22.05;6.85;;;;;;;-7.55;95.77;98071.94;5013642;28;20045;-69
2022/01/05 05:55:03;;;;;;;22.27;8.38;;;;;;;-7.45;95.39;98084.63;5014116;28;20053;-69
2022/01/05 05:57:29;;;;;;;28.35;9.77;;;;;;;-7.58;95.80;98066.84;5013862;28;20073;-68
2022/01/05 05:59:55;;;;;;;36.95;12.27;;;;;;;-7.88;95.94;98052.66;5033024;28;20053;-72
2022/01/05 06:02:21;;;;;;;37.15;14.43;;;;;;;-7.70;96.19;98085.00;4966575;28;20045;-71
2022/01/05 06:04:46;;;;;;;32.95;12.00;;;;;;;-7.61;96.32;98089.78;4998043;28;20187;-70
2022/01/05 06:07:12;;;;;;;35.83;11.70;;;;;;;-7.57;96.03;98093.94;4982639;28;20057;-72
2022/01/05 06:09:38;;;;;;;37.53;15.05;;;;;;;-7.58;95.95;98089.63;5015566;28;20041;-69
2022/01/05 06:12:04;;;;;;;24.52;5.40;;;;;;;-7.74;95.64;98039.72;4999356;28;20175;-70
2022/01/05 06:14:30;;;;;;;29.70;10.75;;;;;;;-7.54;94.96;98073.63;4982882;28;20045;-70
2022/01/05 06:16:56;;;;;;;26.25;9.20;;;;;;;-7.67;94.37;98038.47;4997659;28;20096;-70
2022/01/05 06:19:21;;;;;;;21.45;7.80;;;;;;;-7.40;94.35;98090.47;5013498;28;20508;-71
2022/01/05 06:21:50;;;;;;;28.05;9.95;;;;;;;-7.36;94.16;98084.13;4980720;28;20037;-71
2022/01/05 06:24:16;;;;;;;28.13;11.73;;;;;;;-7.44;94.07;98084.53;4997507;28;20109;-71
2022/01/05 06:26:42;;;;;;;20.13;6.10;;;;;;;-7.45;94.58;98082.00;5013542;28;20049;-71
2022/01/05 06:29:08;;;;;;;21.58;7.53;;;;;;;-7.40;94.31;98079.97;4997002;28;20037;-70
2022/01/05 06:31:34;;;;;;;15.10;5.45;;;;;;;-7.43;94.05;98085.38;4980932;28;20247;-68
2022/01/05 06:34:01;;;;;;;34.53;12.25;;;;;;;-7.48;94.47;98079.53;4996684;28;20156;-70
2022/01/05 06:36:27;;;;;;;28.40;9.90;;;;;;;-7.44;94.54;98083.69;4980629;28;20439;-69
2022/01/05 06:38:52;;;;;;;31.92;11.43;;;;;;;-7.48;94.59;98077.75;5012686;28;20069;-69
2022/01/05 06:41:18;;;;;;;32.70;11.27;;;;;;;-7.44;94.10;98081.06;5012583;28;20049;-70
2022/01/05 06:43:44;;;;;;;34.60;12.00;;;;;;;-7.40;93.32;98077.34;4999894;28;20060;-70
2022/01/05 06:46:10;;;;;;;31.00;10.77;;;;;;;-7.69;93.88;98040.31;5000393;28;20184;-70
2022/01/05 06:48:35;;;;;;;25.38;8.65;;;;;;;-7.59;93.75;98035.47;4984449;28;20132;-69
2022/01/05 06:51:01;;;;;;;30.88;11.30;;;;;;;-7.31;93.60;98069.00;5000360;28;20052;-70
2022/01/05 06:53:28;;;;;;;29.52;8.88;;;;;;;-7.26;93.85;98066.13;4984159;28;20095;-69
2022/01/05 06:55:53;;;;;;;24.13;8.00;;;;;;;-7.28;93.59;98053.06;5016643;28;20459;-69
2022/01/05 06:58:19;;;;;;;18.58;7.30;;;;;;;-7.36;93.66;98044.75;5000394;28;20048;-69
2022/01/05 07:00:45;;;;;;;34.63;12.20;;;;;;;-7.55;93.92;98019.47;5016641;28;20045;-69
2022/01/05 07:03:11;;;;;;;33.63;11.60;;;;;;;-7.40;93.94;98030.09;5000269;28;20033;-70
2022/01/05 07:05:38;;;;;;;30.50;11.00;;;;;;;-7.43;94.04;98032.88;4984004;28;20095;-73
2022/01/05 07:08:05;;;;;;;30.13;9.88;;;;;;;-7.24;93.58;98038.84;5000213;28;20119;-69
2022/01/05 07:10:30;;;;;;;18.35;7.63;;;;;;;-7.21;93.37;98033.44;5000181;28;20049;-69
2022/01/05 07:12:56;;;;;;;20.13;7.47;;;;;;;-7.28;93.70;98024.19;4999953;28;20127;-69
2022/01/05 07:15:22;;;;;;;24.65;8.90;;;;;;;-7.23;93.44;98019.56;5000050;28;20410;-70
2022/01/05 07:17:48;;;;;;;24.05;8.63;;;;;;;-7.35;93.26;98005.34;5000413;28;20065;-69
2022/01/05 07:20:14;;;;;;;30.63;10.57;;;;;;;-7.17;93.41;98028.88;4982485;28;20048;-69
2022/01/05 07:22:39;;;;;;;23.45;8.00;;;;;;;-7.59;93.14;97962.00;4984469;28;20072;-69
2022/01/05 07:25:06;;;;;;;27.38;10.18;;;;;;;-7.18;93.77;98014.91;4979220;28;20052;-70
2022/01/05 07:27:31;;;;;;;17.15;6.95;;;;;;;-7.46;94.23;97975.31;4972630;28;20038;-69
2022/01/05 07:29:57;;;;;;;31.08;10.20;;;;;;;-7.42;95.36;98024.94;5013951;28;20389;-67
2022/01/05 07:32:23;;;;;;;24.52;7.53;;;;;;;-7.32;95.18;98009.53;4996615;28;20046;-67
2022/01/05 07:34:49;;;;;;;34.95;14.50;;;;;;;-7.44;94.50;98015.44;4962882;28;20120;-68
2022/01/05 07:37:15;;;;;;;23.52;8.63;;;;;;;-7.45;95.89;98008.50;4995702;28;20516;-68
2022/01/05 07:39:41;;;;;;;33.10;10.73;;;;;;;-7.30;94.84;98018.19;4968418;28;20037;-70
2022/01/05 07:42:08;;;;;;;32.05;10.98;;;;;;;-7.38;94.00;98010.72;4989607;28;20095;-68
2022/01/05 07:44:33;;;;;;;31.90;11.82;;;;;;;-7.33;93.95;98000.00;4970988;28;20037;-70
2022/01/05 07:46:59;;;;;;;26.95;10.85;;;;;;;-7.25;94.72;97981.19;4972695;28;20140;-67
2022/01/05 07:49:25;;;;;;;24.40;7.72;;;;;;;-7.33;94.29;97965.88;4966656;28;20061;-68
2022/01/05 07:51:51;;;;;;;23.02;7.10;;;;;;;-7.34;94.15;97962.41;4993005;28;20548;-66
2022/01/05 07:54:17;;;;;;;30.27;10.70;;;;;;;-7.50;95.00;97937.03;4981791;28;20042;-65
2022/01/05 07:56:43;;;;;;;33.78;11.07;;;;;;;-7.31;95.43;97958.78;5017857;28;20064;-68
2022/01/05 07:59:09;;;;;;;22.10;6.95;;;;;;;-7.41;95.13;97945.28;4962756;28;20057;-66
2022/01/05 08:01:35;;;;;;;29.23;10.05;;;;;;;-7.34;95.75;97948.44;4968864;28;20042;-67
2022/01/05 08:04:01;;;;;;;13.98;4.50;;;;;;;-7.40;95.90;97933.00;4999261;28;20064;-66
2022/01/05 08:06:26;;;;;;;20.95;7.50;;;;;;;-7.76;96.11;97865.81;4987050;28;20494;-69
2022/01/05 08:08:53;;;;;;;21.35;7.15;;;;;;;-7.62;96.00;97886.94;4960216;28;20037;-68
2022/01/05 08:11:19;;;;;;;20.48;6.18;;;;;;;-7.54;96.63;97897.84;4981932;28;20482;-67
2022/01/05 08:13:44;;;;;;;11.98;3.95;;;;;;;-7.36;96.71;97913.53;4981143;28;20544;-67
2022/01/05 08:16:10;;;;;;;23.75;6.90;;;;;;;-7.43;97.00;97897.28;4971243;28;20145;-67
2022/01/05 08:18:36;;;;;;;23.75;8.20;;;;;;;-7.32;96.63;97904.56;4980866;28;20049;-67
2022/01/05 08:21:02;;;;;;;22.98;8.88;;;;;;;-7.13;95.86;97904.41;4973939;28;20057;-67
2022/01/05 08:23:28;;;;;;;24.80;9.70;;;;;;;-7.10;96.17;97894.56;4986839;28;20577;-66
2022/01/05 08:25:54;;;;;;;12.10;4.45;;;;;;;-7.38;95.71;97855.06;4996731;28;20140;-67
2022/01/05 08:28:20;;;;;;;19.30;6.13;;;;;;;-7.11;95.78;97878.91;4988844;28;20073;-67
2022/01/05 08:30:47;;;;;;;15.93;6.72;;;;;;;-7.43;95.79;97828.19;5017987;28;20054;-67
2022/01/05 08:33:14;;;;;;;12.23;3.70;;;;;;;-7.10;96.25;97868.31;4995611;28;20045;-66
2022/01/05 08:35:40;;;;;;;26.30;7.35;;;;;;;-7.07;96.07;97877.81;5018042;28;20057;-67
2022/01/05 08:38:06;;;;;;;9.85;3.88;;;;;;;-7.08;95.69;97848.09;5002085;28;20049;-67
2022/01/05 08:40:34;;;;;;;19.85;6.82;;;;;;;-7.07;96.03;97838.41;4978982;28;20054;-67
2022/01/05 08:43:03;;;;;;;23.48;9.50;;;;;;;-7.15;96.09;97844.09;4978315;28;20053;-68
2022/01/05 08:45:28;;;;;;;19.30;6.63;;;;;;;-6.99;96.57;97837.97;5011328;28;20398;-70
2022/01/05 08:47:56;;;;;;;22.73;8.30;;;;;;;-6.98;96.24;97835.28;4961862;28;20054;-67
2022/01/05 08:50:23;;;;;;;14.25;4.78;;;;;;;-6.93;96.51;97832.38;5012314;28;20045;-68
2022/01/05 08:52:50;;;;;;;21.90;8.75;;;;;;;-7.13;96.65;97807.25;5012221;28;20057;-70
2022/01/05 08:55:17;;;;;;;28.67;9.75;;;;;;;-7.01;96.67;97816.22;5002635;28;20515;-68
2022/01/05 08:57:43;;;;;;;12.40;4.38;;;;;;;-6.84;97.29;97822.22;4991897;28;20398;-68
2022/01/05 09:00:10;;;;;;;13.15;3.95;;;;;;;-6.80;96.69;97805.34;5014081;28;20599;-66
2022/01/05 09:02:37;;;;;;;14.77;4.45;;;;;;;-7.19;96.84;97737.59;5031897;28;20050;-66
2022/01/05 09:05:04;;;;;;;15.35;5.00;;;;;;;-6.79;97.22;97808.81;5012822;28;20406;-66
2022/01/05 09:07:30;;;;;;;18.10;6.05;;;;;;;-6.89;97.52;97786.63;5031818;28;20094;-66
2022/01/05 09:09:55;;;;;;;12.30;5.45;;;;;;;-6.85;97.05;97790.75;4964873;28;20132;-66
2022/01/05 09:12:21;;;;;;;18.65;6.05;;;;;;;-6.87;97.26;97758.50;5013912;28;20053;-67
2022/01/05 09:14:47;;;;;;;12.93;4.78;;;;;;;-6.78;96.88;97768.47;4981340;28;20045;-66
2022/01/05 09:17:13;;;;;;;15.43;5.32;;;;;;;-6.89;96.59;97728.84;4997559;28;20041;-66
2022/01/05 09:19:39;;;;;;;20.17;8.38;;;;;;;-6.77;96.90;97754.38;4997601;28;20045;-66
2022/01/05 09:22:05;;;;;;;17.17;5.93;;;;;;;-6.70;96.65;97745.19;4997276;28;20061;-66
2022/01/05 09:24:32;;;;;;;21.65;6.63;;;;;;;-6.68;97.00;97722.31;5013416;28;20045;-66
2022/01/05 09:27:02;;;;;;;19.48;7.43;;;;;;;-6.75;96.53;97726.25;5013645;28;20052;-66
2022/01/05 09:29:29;;;;;;;17.40;5.78;;;;;;;-6.75;96.34;97714.91;5014373;28;20042;-66
2022/01/05 09:31:55;;;;;;;11.23;4.28;;;;;;;-6.90;97.23;97690.41;5013387;28;20081;-66
2022/01/05 09:34:21;;;;;;;16.67;5.53;;;;;;;-6.75;97.59;97694.72;4997167;28;20150;-66
2022/01/05 09:36:51;;;;;;;14.73;5.70;;;;;;;-6.76;97.45;97687.78;5013609;28;20045;-66
2022/01/05 09:42:05;;;;;;;12.15;3.90;;;;;;;-6.68;97.72;97679.44;4999676;28;20140;-66
2022/01/05 09:44:38;;;;;;;14.55;4.78;;;;;;;-6.64;98.05;97675.69;4997595;28;20052;-67
2022/01/05 09:47:23;;;;;;;25.30;6.45;;;;;;;-6.68;97.77;97668.94;4980960;28;20080;-66
2022/01/05 09:49:53;;;;;;;17.58;6.18;;;;;;;-6.91;98.49;97613.41;5013109;28;20092;-67
2022/01/05 09:52:22;;;;;;;18.85;6.15;;;;;;;-6.78;98.45;97631.84;5013613;28;20053;-66
2022/01/05 09:54:48;;;;;;;12.52;4.25;;;;;;;-6.87;98.27;97595.66;4997067;28;20045;-66
2022/01/05 09:57:15;;;;;;;16.85;4.72;;;;;;;-6.88;98.61;97599.22;5013318;28;20762;-67
2022/01/05 09:59:41;;;;;;;15.68;5.18;;;;;;;-6.71;98.59;97620.03;5013490;28;20088;-66
2022/01/05 10:02:07;;;;;;;21.45;7.15;;;;;;;-6.81;98.40;97595.28;4996801;28;20050;-66
2022/01/05 10:04:35;;;;;;;20.17;6.65;;;;;;;-6.81;98.52;97588.22;5013053;28;20063;-67
2022/01/05 10:07:02;;;;;;;21.95;7.72;;;;;;;-6.80;98.30;97581.19;5031591;28;20057;-66
2022/01/05 10:09:28;;;;;;;14.98;5.00;;;;;;;-6.79;98.29;97593.41;5030662;28;20095;-66
2022/01/05 10:11:54;;;;;;;15.02;5.75;;;;;;;-6.80;98.22;97576.81;4996499;28;20061;-66
2022/01/05 10:14:20;;;;;;;11.88;4.50;;;;;;;-6.77;98.35;97570.50;5012939;28;20107;-66
2022/01/05 10:17:04;;;;;;;20.25;7.22;;;;;;;-6.90;98.41;97548.56;4996575;28;20450;-66
2022/01/05 10:19:31;;;;;;;17.67;6.28;;;;;;;-6.81;97.44;97569.84;5012851;28;20052;-66
2022/01/05 10:21:57;;;;;;;23.25;7.30;;;;;;;-6.77;97.78;97578.38;5012667;28;20042;-66
2022/01/05 10:24:42;;;;;;;14.50;5.82;;;;;;;-6.71;98.21;97571.91;4980207;28;20091;-66
2022/01/05 10:27:14;;;;;;;14.18;5.93;;;;;;;-6.99;97.66;97517.63;4996286;28;20504;-66
2022/01/05 10:29:50;;;;;;;15.38;5.43;;;;;;;-6.94;98.19;97512.94;4996465;28;20056;-67
2022/01/05 10:32:16;;;;;;;19.75;7.10;;;;;;;-6.89;98.08;97503.81;4996520;28;20050;-66
2022/01/05 10:34:42;;;;;;;22.38;6.75;;;;;;;-6.67;98.15;97540.09;5012251;28;20048;-66
2022/01/05 10:37:08;;;;;;;14.90;5.07;;;;;;;-6.65;98.52;97537.38;5029295;28;20042;-66
2022/01/05 10:39:40;;;;;;;17.38;5.28;;;;;;;-6.67;98.73;97534.84;5012921;28;20516;-67
2022/01/05 10:42:11;;;;;;;13.95;5.85;;;;;;;-6.66;98.03;97531.25;5030563;28;20041;-67
2022/01/05 10:44:38;;;;;;;11.70;4.00;;;;;;;-6.62;98.79;97531.91;4980168;28;20187;-65
2022/01/05 10:47:07;;;;;;;15.48;5.95;;;;;;;-6.66;98.60;97515.50;4996238;28;20095;-66
2022/01/05 10:49:38;;;;;;;11.60;4.43;;;;;;;-6.92;99.46;97483.00;5012436;28;20145;-66
2022/01/05 10:52:26;;;;;;;17.30;5.93;;;;;;;-6.74;99.75;97504.63;5012509;28;20442;-66
2022/01/05 10:54:54;;;;;;;17.58;6.68;;;;;;;-6.73;99.79;97498.44;4996569;28;20065;-67
2022/01/05 10:57:20;;;;;;;21.05;7.15;;;;;;;-6.86;99.52;97471.28;5012825;28;20171;-66
2022/01/05 10:59:48;;;;;;;18.50;7.55;;;;;;;-6.86;99.72;97482.63;5012422;28;20052;-66
2022/01/05 11:02:31;;;;;;;13.95;4.80;;;;;;;-6.84;99.92;97479.88;5012390;28;20210;-66
2022/01/05 11:05:06;;;;;;;17.63;6.53;;;;;;;-6.88;99.89;97475.78;5012318;28;20130;-66
2022/01/05 11:07:34;;;;;;;15.18;5.78;;;;;;;-6.95;99.82;97459.56;4996165;28;20054;-66
2022/01/05 11:10:08;;;;;;;25.88;10.45;;;;;;;-7.00;100.00;97458.19;5012742;28;20052;-66
2022/01/05 11:12:36;;;;;;;26.40;9.63;;;;;;;-7.03;100.00;97454.78;5013273;28;20117;-66
2022/01/05 11:15:21;;;;;;;25.58;8.43;;;;;;;-7.06;100.00;97465.50;5012410;28;20045;-66
2022/01/05 11:18:20;;;;;;;24.02;7.82;;;;;;;-7.07;100.00;97450.66;5012278;28;20049;-66
2022/01/05 11:20:58;;;;;;;20.92;8.90;;;;;;;-7.16;100.00;97453.91;4943655;28;20049;-66